Time;durP1;ratioP1;P1;durP2;ratioP2;P2;SDS_P1;SDS_P2;PMS_P1;PMS_P2;Temp;Humidity;BMP_temperature;BMP_pressure;BME280_temperature;BME280_humidity;BME280_pressure;Samples;Min_cycle;Max_cycle;Signal;HPM_P1;HPM_P2
2022/04/02 00:00:17;;;;;;;29.48;26.67;;;;;;;1.07;100.00;97397.41;2065782;28;20242;-72
2022/04/02 00:01:22;;;;;;;29.00;26.30;;;;;;;0.99;100.00;97398.78;2057624;28;20667;-72
2022/04/02 00:02:27;;;;;;;28.70;25.85;;;;;;;0.97;100.00;97406.16;2065927;28;20260;-72
2022/04/02 00:03:31;;;;;;;29.80;26.83;;;;;;;0.99;100.00;97404.03;2066776;28;20196;-72
2022/04/02 00:04:37;;;;;;;29.63;26.55;;;;;;;0.93;100.00;97399.09;2066645;28;20189;-72
2022/04/02 00:05:41;;;;;;;30.88;27.80;;;;;;;0.99;100.00;97395.38;2065720;28;20201;-72
2022/04/02 00:06:44;;;;;;;29.80;26.90;;;;;;;0.90;100.00;97400.44;2072386;28;20572;-72
2022/04/02 00:07:46;;;;;;;30.08;26.95;;;;;;;0.83;100.00;97392.84;2074579;28;20269;-72
2022/04/02 00:08:55;;;;;;;29.70;26.85;;;;;;;0.88;100.00;97405.19;2074790;28;20192;-72
2022/04/02 00:10:01;;;;;;;29.60;26.67;;;;;;;0.88;100.00;97397.31;2073956;28;20196;-72
2022/04/02 00:11:07;;;;;;;29.58;26.52;;;;;;;0.89;100.00;97392.84;2074010;28;20293;-72
2022/04/02 00:12:17;;;;;;;28.85;26.10;;;;;;;0.85;100.00;97389.97;2073854;28;20662;-72
2022/04/02 00:13:23;;;;;;;29.48;26.60;;;;;;;0.83;100.00;97390.22;2074098;28;20176;-72
2022/04/02 00:14:29;;;;;;;30.17;27.20;;;;;;;0.89;100.00;97398.09;2074588;28;20595;-72
2022/04/02 00:15:34;;;;;;;30.20;27.30;;;;;;;0.87;100.00;97390.50;2073745;28;20579;-72
2022/04/02 00:16:40;;;;;;;29.83;26.73;;;;;;;0.87;100.00;97387.88;2073965;28;20192;-72
2022/04/02 00:17:46;;;;;;;31.10;27.90;;;;;;;0.90;100.00;97389.94;2074456;28;20733;-72
2022/04/02 00:18:59;;;;;;;29.77;26.92;;;;;;;0.91;100.00;97391.50;2074715;28;20185;-72
2022/04/02 00:20:05;;;;;;;30.30;27.33;;;;;;;0.91;100.00;97388.09;2074752;28;20261;-72
2022/04/02 00:21:08;;;;;;;29.33;26.45;;;;;;;0.82;100.00;97387.88;2074179;28;20238;-72
2022/04/02 00:22:10;;;;;;;29.35;26.55;;;;;;;0.91;100.00;97391.50;2074501;28;20263;-72
2022/04/02 00:24:46;;;;;;;30.35;27.38;;;;;;;0.91;100.00;97394.13;2074112;28;20196;-72
2022/04/02 00:25:52;;;;;;;29.15;26.23;;;;;;;0.87;100.00;97392.31;2074695;28;20173;-72
2022/04/02 00:27:01;;;;;;;28.83;25.95;;;;;;;0.92;100.00;97389.66;2074484;28;20176;-72
2022/04/02 00:28:06;;;;;;;29.33;26.42;;;;;;;0.92;100.00;97403.56;2074426;28;20739;-72
2022/04/02 00:29:11;;;;;;;31.05;27.88;;;;;;;0.90;100.00;97400.44;2073751;28;20200;-72
2022/04/02 00:30:17;;;;;;;30.00;26.90;;;;;;;0.97;100.00;97405.38;2066280;28;20197;-72
2022/04/02 00:31:29;;;;;;;28.92;26.02;;;;;;;0.99;100.00;97404.03;2074008;28;20173;-72
2022/04/02 00:32:37;;;;;;;28.83;26.02;;;;;;;1.02;100.00;97402.69;2074537;28;20303;-72
2022/04/02 00:33:46;;;;;;;29.95;27.00;;;;;;;1.03;100.00;97399.00;2073722;28;20204;-72
2022/04/02 00:34:50;;;;;;;29.10;26.20;;;;;;;1.01;100.00;97401.13;2073884;28;20173;-72
2022/04/02 00:35:55;;;;;;;28.67;25.98;;;;;;;0.98;100.00;97401.69;2073693;28;20192;-72
2022/04/02 00:36:58;;;;;;;29.60;26.73;;;;;;;0.95;100.00;97407.47;2073420;28;20235;-72
2022/04/02 00:38:01;;;;;;;27.55;24.83;;;;;;;0.94;100.00;97409.31;2074340;28;20199;-72
2022/04/02 00:39:09;;;;;;;28.33;25.52;;;;;;;0.91;100.00;97422.22;2073479;28;20292;-72
2022/04/02 00:40:18;;;;;;;30.13;27.02;;;;;;;0.94;100.00;97408.53;2074106;28;20271;-72
2022/04/02 00:41:24;;;;;;;29.90;26.92;;;;;;;1.00;100.00;97410.84;2074497;28;20636;-72
2022/04/02 00:42:25;;;;;;;30.27;27.17;;;;;;;0.99;100.00;97414.53;2073323;28;20259;-72
2022/04/02 00:43:29;;;;;;;30.27;27.25;;;;;;;0.91;100.00;97409.88;2065422;28;20224;-72
2022/04/02 00:44:38;;;;;;;29.75;26.92;;;;;;;0.89;100.00;97417.25;2073718;28;20275;-72
2022/04/02 00:45:45;;;;;;;29.63;26.73;;;;;;;0.89;100.00;97406.75;2073941;28;20204;-72
2022/04/02 00:46:59;;;;;;;28.85;26.05;;;;;;;0.94;100.00;97417.19;2065724;28;20205;-72
2022/04/02 00:48:03;;;;;;;30.65;27.58;;;;;;;1.03;100.00;97417.38;2066937;28;20205;-72
2022/04/02 00:49:12;;;;;;;29.27;26.58;;;;;;;1.02;100.00;97408.72;2073809;28;20200;-72
2022/04/02 00:50:14;;;;;;;29.83;26.85;;;;;;;0.99;100.00;97422.41;2081509;28;20255;-72
2022/04/02 00:51:21;;;;;;;30.40;27.23;;;;;;;0.96;100.00;97415.09;2084592;28;20310;-72
2022/04/02 00:52:27;;;;;;;30.20;27.05;;;;;;;0.90;100.00;97418.03;2082437;28;20227;-72
2022/04/02 00:53:39;;;;;;;29.08;26.27;;;;;;;0.94;100.00;97419.03;2082735;28;20195;-72
2022/04/02 00:54:46;;;;;;;27.98;25.38;;;;;;;0.94;100.00;97419.03;2082583;28;20270;-72
2022/04/02 00:55:54;;;;;;;28.27;25.60;;;;;;;1.01;100.00;97419.50;2090346;28;20612;-72
2022/04/02 00:56:59;;;;;;;28.98;26.27;;;;;;;1.04;100.00;97417.13;2090759;28;20203;-72
2022/04/02 00:58:00;;;;;;;30.23;27.20;;;;;;;1.00;100.00;97421.34;2089940;28;20566;-72
2022/04/02 00:59:08;;;;;;;29.40;26.40;;;;;;;1.06;100.00;97427.38;2089931;28;20203;-72
2022/04/02 01:00:17;;;;;;;29.20;26.30;;;;;;;0.88;100.00;97423.56;2082475;28;20210;-72
2022/04/02 01:01:25;;;;;;;28.50;25.65;;;;;;;0.88;100.00;97417.53;2083162;28;20285;-72
2022/04/02 01:02:30;;;;;;;30.38;27.42;;;;;;;0.88;100.00;97423.56;2082390;28;20263;-72
2022/04/02 01:03:35;;;;;;;29.17;26.40;;;;;;;0.90;100.00;97416.19;2089969;28;20231;-72
2022/04/02 01:04:37;;;;;;;27.88;25.20;;;;;;;0.84;100.00;97419.91;2089957;28;20217;-72
2022/04/02 01:05:44;;;;;;;28.33;25.63;;;;;;;0.90;100.00;97426.69;2081784;28;20286;-72
2022/04/02 01:06:52;;;;;;;28.70;25.92;;;;;;;0.87;100.00;97422.00;2075049;28;20231;-72
2022/04/02 01:08:04;;;;;;;28.70;26.00;;;;;;;0.93;100.00;97415.63;2074879;28;20719;-72
2022/04/02 01:09:14;;;;;;;29.75;26.90;;;;;;;0.92;100.00;97419.31;2081728;28;20539;-72
2022/04/02 01:10:24;;;;;;;29.50;26.45;;;;;;;0.91;100.00;97417.75;2098267;28;20212;-72
2022/04/02 01:11:37;;;;;;;29.10;26.20;;;;;;;0.89;100.00;97422.50;2089452;28;20202;-72
2022/04/02 01:12:46;;;;;;;28.15;25.30;;;;;;;0.89;100.00;97425.13;2074779;28;20251;-72
2022/04/02 01:13:59;;;;;;;29.73;26.77;;;;;;;0.90;100.00;97420.66;2091642;28;20245;-72
2022/04/02 01:15:02;;;;;;;28.02;25.45;;;;;;;0.81;100.00;97425.69;2089057;28;20199;-72
2022/04/02 01:16:22;;;;;;;28.55;25.77;;;;;;;0.85;100.00;97421.47;2074989;28;20227;-72
2022/04/02 01:17:34;;;;;;;27.83;25.08;;;;;;;0.86;100.00;97420.41;2075544;28;20286;-72
2022/04/02 01:18:39;;;;;;;28.50;25.70;;;;;;;0.91;100.00;97424.84;2090371;28;20218;-72
2022/04/02 01:19:49;;;;;;;28.98;26.15;;;;;;;0.90;100.00;97426.69;2089528;28;20210;-72
2022/04/02 01:21:03;;;;;;;29.05;26.30;;;;;;;0.95;100.00;97418.75;2091806;28;20691;-72
2022/04/02 01:22:22;;;;;;;28.38;25.67;;;;;;;0.95;100.00;97421.38;2088441;28;20208;-72
2022/04/02 01:23:34;;;;;;;27.60;24.85;;;;;;;0.94;100.00;97424.28;2074929;28;20710;-72
2022/04/02 01:24:48;;;;;;;29.42;26.63;;;;;;;0.90;100.00;97424.06;2081566;28;20227;-72
2022/04/02 01:25:51;;;;;;;28.40;25.70;;;;;;;0.86;100.00;97425.66;2081469;28;20207;-72
2022/04/02 01:27:03;;;;;;;28.35;24.95;;;;;;;0.83;100.00;97423.59;2074749;28;20215;-72
2022/04/02 01:28:08;;;;;;;28.55;25.77;;;;;;;0.82;100.00;97424.63;2074130;28;20245;-72
2022/04/02 01:29:18;;;;;;;26.02;23.50;;;;;;;0.86;100.00;97441.41;2073814;28;20259;-72
2022/04/02 01:30:27;;;;;;;28.38;25.67;;;;;;;0.90;100.00;97428.53;2081897;28;20167;-72
2022/04/02 01:31:34;;;;;;;27.83;25.17;;;;;;;0.85;100.00;97431.97;2081892;28;20196;-72
2022/04/02 01:32:37;;;;;;;27.92;25.40;;;;;;;0.91;100.00;97432.72;2074032;28;20315;-72
2022/04/02 01:33:50;;;;;;;28.98;26.08;;;;;;;0.91;100.00;97430.88;2074266;28;20189;-72
2022/04/02 01:34:58;;;;;;;28.98;26.13;;;;;;;0.84;100.00;97431.19;2081428;28;20203;-72
2022/04/02 01:36:06;;;;;;;29.17;26.48;;;;;;;0.76;100.00;97425.72;2073439;28;20607;-72
2022/04/02 01:37:26;;;;;;;28.13;25.42;;;;;;;0.81;100.00;97429.09;2074904;28;20211;-72
2022/04/02 01:38:38;;;;;;;28.20;25.52;;;;;;;0.86;100.00;97433.53;2075018;28;20184;-72
2022/04/02 01:39:40;;;;;;;28.70;26.00;;;;;;;0.84;100.00;97427.78;2074062;28;20208;-72
2022/04/02 01:40:45;;;;;;;27.65;25.00;;;;;;;0.83;100.00;97423.59;2090081;28;20187;-72
2022/04/02 01:41:52;;;;;;;28.13;25.35;;;;;;;0.87;100.00;97429.88;2089236;28;20202;-72
2022/04/02 01:43:02;;;;;;;28.23;25.50;;;;;;;0.86;100.00;97423.03;2081511;28;20666;-72
2022/04/02 01:44:15;;;;;;;27.73;25.02;;;;;;;0.88;100.00;97428.03;2097945;28;20202;-72
2022/04/02 01:45:23;;;;;;;27.50;24.90;;;;;;;0.80;100.00;97424.91;2088437;28;20591;-72
2022/04/02 01:46:32;;;;;;;28.20;25.50;;;;;;;0.81;100.00;97429.09;2081616;28;20314;-72
2022/04/02 01:47:33;;;;;;;26.95;24.35;;;;;;;0.81;100.00;97429.09;2082247;28;20192;-72
2022/04/02 01:48:40;;;;;;;27.98;25.27;;;;;;;0.86;100.00;97430.91;2081502;28;20626;-72
2022/04/02 01:49:49;;;;;;;28.63;25.88;;;;;;;0.92;100.00;97427.19;2073683;28;20224;-72
2022/04/02 01:50:59;;;;;;;28.33;25.48;;;;;;;0.92;100.00;97439.53;2074088;28;20578;-72
2022/04/02 01:52:01;;;;;;;27.73;25.05;;;;;;;0.88;100.00;97428.81;2074216;28;20608;-72
2022/04/02 01:53:10;;;;;;;27.73;25.00;;;;;;;0.87;100.00;97427.25;2089853;28;20223;-72
2022/04/02 01:54:17;;;;;;;28.48;25.67;;;;;;;0.85;100.00;97430.13;2088786;28;20665;-72
2022/04/02 01:55:22;;;;;;;28.23;25.63;;;;;;;0.85;100.00;97434.59;2090450;28;20213;-72
2022/04/02 01:56:37;;;;;;;27.13;24.63;;;;;;;0.82;100.00;97430.66;2087951;28;20683;-72
2022/04/02 01:57:39;;;;;;;29.27;26.42;;;;;;;0.88;100.00;97428.81;2081650;28;20192;-72
2022/04/02 01:58:51;;;;;;;28.65;25.73;;;;;;;0.93;100.00;97436.63;2081359;28;20215;-72
2022/04/02 02:00:00;;;;;;;26.38;23.83;;;;;;;0.94;100.00;97438.19;2074659;28;20295;-72
2022/04/02 02:01:04;;;;;;;28.17;25.33;;;;;;;0.92;100.00;97439.53;2090426;28;20202;-72
2022/04/02 02:02:07;;;;;;;26.80;24.48;;;;;;;0.94;100.00;97438.19;2089282;28;20194;-72
2022/04/02 02:03:16;;;;;;;27.75;25.05;;;;;;;0.95;100.00;97438.97;2081323;28;20207;-72
2022/04/02 02:04:22;;;;;;;27.25;24.65;;;;;;;0.95;100.00;97438.97;2081626;28;20196;-72
2022/04/02 02:05:29;;;;;;;25.48;23.23;;;;;;;0.94;100.00;97437.41;2082086;28;20187;-72
2022/04/02 02:06:31;;;;;;;28.30;25.52;;;;;;;0.91;100.00;97438.75;2081904;28;20280;-72
2022/04/02 02:07:38;;;;;;;27.80;25.13;;;;;;;0.95;100.00;97445.00;2081418;28;20183;-72
2022/04/02 02:08:43;;;;;;;27.10;24.52;;;;;;;0.92;100.00;97440.31;2081783;28;20238;-72
2022/04/02 02:10:05;;;;;;;26.85;24.48;;;;;;;0.95;100.00;97438.97;2082103;28;20560;-72
2022/04/02 02:11:34;;;;;;;26.95;24.42;;;;;;;0.97;100.00;97437.66;2081865;28;20705;-72
2022/04/02 02:13:13;;;;;;;26.55;24.23;;;;;;;0.92;100.00;97440.31;2081830;28;20199;-72
2022/04/02 02:14:21;;;;;;;28.17;25.63;;;;;;;0.93;100.00;97438.47;2082062;28;20176;-72
2022/04/02 02:15:39;;;;;;;28.20;25.50;;;;;;;0.94;100.00;97446.06;2082207;28;20172;-72
2022/04/02 02:16:41;;;;;;;27.98;25.30;;;;;;;0.90;100.00;97446.91;2081582;28;20234;-72
2022/04/02 02:17:44;;;;;;;26.92;24.52;;;;;;;0.93;100.00;97441.88;2081579;28;20192;-72
2022/04/02 02:18:49;;;;;;;27.98;25.13;;;;;;;0.92;100.00;97440.31;2081918;28;20291;-72
2022/04/02 02:19:55;;;;;;;28.52;25.63;;;;;;;0.92;100.00;97440.31;2081653;28;20623;-72
2022/04/02 02:21:00;;;;;;;26.88;24.30;;;;;;;0.97;100.00;97442.91;2080697;28;20266;-72
2022/04/02 02:22:01;;;;;;;27.55;25.05;;;;;;;0.99;100.00;97445.28;2073667;28;20238;-72
2022/04/02 02:23:02;;;;;;;27.80;25.08;;;;;;;0.91;100.00;97456.34;2081285;28;20199;-72
2022/04/02 02:24:12;;;;;;;27.10;24.43;;;;;;;0.87;100.00;97440.38;2081401;28;20217;-72
2022/04/02 02:25:15;;;;;;;27.90;25.40;;;;;;;0.87;100.00;97445.63;2082843;28;20449;-72
2022/04/02 02:26:29;;;;;;;28.90;26.10;;;;;;;0.91;100.00;97448.47;2083095;28;20578;-72
2022/04/02 02:27:39;;;;;;;27.55;24.95;;;;;;;0.92;100.00;97442.94;2083169;28;20542;-72
2022/04/02 02:28:52;;;;;;;27.25;24.85;;;;;;;0.95;100.00;97446.84;2083030;28;20191;-72
2022/04/02 02:30:15;;;;;;;26.63;24.13;;;;;;;0.87;100.00;97445.63;2083258;28;20200;-72
2022/04/02 02:31:17;;;;;;;26.45;24.05;;;;;;;0.77;100.00;97448.28;2082866;28;20199;-72
2022/04/02 02:32:22;;;;;;;28.50;25.90;;;;;;;0.81;100.00;97447.47;2082744;28;20608;-72
2022/04/02 02:36:21;;;;;;;27.73;25.23;;;;;;;0.90;100.00;97447.69;2082307;28;20242;-72
2022/04/02 02:37:48;;;;;;;27.02;24.52;;;;;;;0.94;100.00;97447.91;2082823;28;20239;-72
2022/04/02 02:38:50;;;;;;;27.95;25.25;;;;;;;0.89;100.00;97446.13;2083505;28;20199;-72
2022/04/02 02:40:03;;;;;;;28.88;26.08;;;;;;;0.94;100.00;97448.69;2082946;28;20585;-72
2022/04/02 02:41:10;;;;;;;28.98;26.00;;;;;;;0.94;100.00;97451.31;2075562;28;20200;-72
2022/04/02 02:42:21;;;;;;;26.60;23.98;;;;;;;0.82;100.00;97450.88;2075925;28;20200;-72
2022/04/02 02:43:34;;;;;;;27.85;24.95;;;;;;;0.81;100.00;97450.09;2077052;28;20203;-72
2022/04/02 02:44:47;;;;;;;27.67;25.20;;;;;;;0.82;100.00;97446.44;2082930;28;20187;-72
2022/04/02 02:45:54;;;;;;;27.77;25.27;;;;;;;0.90;100.00;97449.53;2082776;28;20257;-72
2022/04/02 02:46:56;;;;;;;28.67;25.98;;;;;;;0.82;100.00;97443.00;2082754;28;20199;-72
2022/04/02 02:48:11;;;;;;;28.80;26.17;;;;;;;0.90;100.00;97447.69;2082860;28;20195;-72
2022/04/02 02:49:25;;;;;;;27.25;24.77;;;;;;;0.87;100.00;97443.00;2085066;28;20615;-72
2022/04/02 02:50:32;;;;;;;30.08;27.27;;;;;;;0.82;100.00;97445.63;2083098;28;20627;-72
2022/04/02 02:51:34;;;;;;;29.38;26.77;;;;;;;0.81;100.00;97441.44;2074716;28;20251;-72
2022/04/02 02:52:37;;;;;;;29.98;27.35;;;;;;;0.81;100.00;97454.56;2082966;28;20294;-72
2022/04/02 02:53:38;;;;;;;29.02;26.38;;;;;;;0.82;100.00;97446.44;2082768;28;20196;-72
2022/04/02 02:54:40;;;;;;;28.27;25.58;;;;;;;0.76;100.00;97454.59;2082722;28;20218;-72
2022/04/02 02:55:52;;;;;;;28.10;25.60;;;;;;;0.81;100.00;97450.09;2082752;28;20226;-72
2022/04/02 02:57:00;;;;;;;28.13;25.10;;;;;;;0.83;100.00;97450.63;2082834;28;20238;-72
2022/04/02 02:58:07;;;;;;;27.48;24.88;;;;;;;0.82;100.00;97456.13;2082927;28;20195;-73
2022/04/02 02:59:10;;;;;;;27.83;25.17;;;;;;;0.88;100.00;97444.56;2075387;28;20242;-72
2022/04/02 03:00:17;;;;;;;28.85;26.25;;;;;;;0.88;100.00;97449.81;2082706;28;20183;-72
2022/04/02 03:01:24;;;;;;;27.23;24.52;;;;;;;0.86;100.00;97451.91;2082715;28;20195;-72
2022/04/02 03:02:27;;;;;;;26.58;24.08;;;;;;;0.85;100.00;97456.38;2074877;28;20192;-72
2022/04/02 03:03:39;;;;;;;27.52;25.13;;;;;;;0.87;100.00;97448.25;2074774;28;20204;-72
2022/04/02 03:04:47;;;;;;;26.95;24.45;;;;;;;0.83;100.00;97458.50;2075994;28;20226;-72
2022/04/02 03:06:01;;;;;;;28.90;26.00;;;;;;;0.81;100.00;97463.22;2075224;28;20196;-71
2022/04/02 03:07:06;;;;;;;29.05;26.55;;;;;;;0.87;100.00;97452.69;2075936;28;20200;-72
2022/04/02 03:08:14;;;;;;;27.95;25.40;;;;;;;0.90;100.00;97463.44;2083270;28;20199;-72
2022/04/02 03:09:29;;;;;;;27.08;24.45;;;;;;;0.90;100.00;97460.81;2089568;28;20265;-72
2022/04/02 03:10:31;;;;;;;27.83;25.23;;;;;;;0.91;100.00;97459.75;2082803;28;20192;-72
2022/04/02 03:11:43;;;;;;;28.48;25.83;;;;;;;0.95;100.00;97466.03;2082542;28;20597;-72
2022/04/02 03:12:52;;;;;;;27.25;24.83;;;;;;;0.89;100.00;97461.88;2082598;28;20206;-72
2022/04/02 03:14:01;;;;;;;28.25;25.65;;;;;;;0.96;100.00;97451.06;2082787;28;20299;-72
2022/04/02 03:15:04;;;;;;;27.95;25.55;;;;;;;0.90;100.00;97450.31;2082651;28;20676;-72
2022/04/02 03:16:09;;;;;;;27.58;24.92;;;;;;;0.96;100.00;97456.31;2082480;28;20207;-72
2022/04/02 03:17:19;;;;;;;28.13;25.63;;;;;;;0.96;100.00;97451.84;2075579;28;20616;-72
2022/04/02 03:18:22;;;;;;;29.10;26.52;;;;;;;0.99;100.00;97464.44;2074403;28;20204;-72
2022/04/02 03:19:25;;;;;;;29.95;27.25;;;;;;;0.95;100.00;97463.41;2074322;28;20211;-72
2022/04/02 03:20:32;;;;;;;28.30;25.40;;;;;;;0.96;100.00;97462.38;2074891;28;20192;-72
2022/04/02 03:21:34;;;;;;;28.83;25.98;;;;;;;0.95;100.00;97459.97;2074331;28;20277;-72
2022/04/02 03:22:40;;;;;;;28.00;25.60;;;;;;;0.93;100.00;97457.63;2082474;28;20211;-72
2022/04/02 03:23:45;;;;;;;28.08;25.38;;;;;;;0.92;100.00;97456.06;2082724;28;20680;-72
2022/04/02 03:24:56;;;;;;;26.77;24.17;;;;;;;0.99;100.00;97456.56;2082390;28;20226;-72
2022/04/02 03:26:00;;;;;;;26.42;23.90;;;;;;;0.98;100.00;97464.72;2074940;28;20207;-72
2022/04/02 03:27:14;;;;;;;28.45;25.65;;;;;;;0.96;100.00;97459.75;2082462;28;20191;-72
2022/04/02 03:28:27;;;;;;;27.25;24.65;;;;;;;0.99;100.00;97461.03;2076126;28;20334;-72
2022/04/02 03:29:32;;;;;;;27.23;24.45;;;;;;;0.95;100.00;97463.41;2075318;28;20196;-72
2022/04/02 03:30:41;;;;;;;31.60;25.80;;;;;;;0.92;100.00;97457.91;2075225;28;20202;-72
2022/04/02 03:31:50;;;;;;;27.55;24.65;;;;;;;0.97;100.00;97463.94;2082582;28;20651;-72
2022/04/02 03:32:59;;;;;;;27.95;25.10;;;;;;;1.02;100.00;97457.84;2082919;28;20233;-72
2022/04/02 03:34:03;;;;;;;27.20;24.63;;;;;;;0.95;100.00;97457.34;2082416;28;20662;-72
2022/04/02 03:35:14;;;;;;;27.65;24.95;;;;;;;0.95;100.00;97458.13;2074494;28;20290;-72
2022/04/02 03:36:22;;;;;;;27.85;24.95;;;;;;;0.93;100.00;97467.34;2074683;28;20224;-72
2022/04/02 03:37:24;;;;;;;27.25;24.75;;;;;;;0.87;100.00;97453.50;2082543;28;20219;-72
2022/04/02 03:38:29;;;;;;;29.50;26.80;;;;;;;0.89;100.00;97461.88;2082462;28;20245;-72
2022/04/02 03:39:38;;;;;;;27.48;24.98;;;;;;;0.98;100.00;97468.13;2074694;28;20239;-72
2022/04/02 03:40:49;;;;;;;28.95;26.00;;;;;;;0.89;100.00;97461.88;2082284;28;20231;-72
2022/04/02 03:41:58;;;;;;;27.55;24.90;;;;;;;0.91;100.00;97464.22;2081758;28;20256;-72
2022/04/02 03:43:07;;;;;;;27.33;24.73;;;;;;;0.91;100.00;97462.38;2082696;28;20264;-72
2022/04/02 03:44:12;;;;;;;28.15;25.15;;;;;;;0.96;100.00;97461.56;2074764;28;20695;-72
2022/04/02 03:45:21;;;;;;;27.80;24.80;;;;;;;0.91;100.00;97465.00;2081782;28;20199;-72
2022/04/02 03:47:59;;;;;;;27.48;24.60;;;;;;;0.91;100.00;97475.50;2082470;28;20214;-72
2022/04/02 03:49:05;;;;;;;29.75;24.92;;;;;;;0.87;100.00;97464.00;2082230;28;20642;-72
2022/04/02 03:50:14;;;;;;;27.27;24.33;;;;;;;0.88;100.00;97473.44;2081910;28;20366;-72
2022/04/02 03:51:21;;;;;;;27.83;24.92;;;;;;;0.84;100.00;97467.94;2081614;28;20223;-72
2022/04/02 03:52:27;;;;;;;27.23;24.38;;;;;;;0.91;100.00;97472.09;2082318;28;20696;-72
2022/04/02 03:53:42;;;;;;;26.98;24.23;;;;;;;0.88;100.00;97470.03;2082363;28;20205;-72
2022/04/02 03:54:49;;;;;;;26.33;23.73;;;;;;;0.92;100.00;97461.31;2082706;28;20286;-72
2022/04/02 03:55:56;;;;;;;26.15;23.65;;;;;;;0.93;100.00;97481.25;2082449;28;20203;-72
2022/04/02 03:57:08;;;;;;;27.83;24.92;;;;;;;0.89;100.00;97480.25;2082533;28;20192;-72
2022/04/02 03:58:14;;;;;;;26.77;24.08;;;;;;;0.92;100.00;97463.94;2082458;28;20203;-72
2022/04/02 03:59:18;;;;;;;27.48;24.65;;;;;;;0.95;100.00;97481.00;2074514;28;20207;-72
2022/04/02 04:00:30;;;;;;;27.52;24.67;;;;;;;0.96;100.00;97478.13;2074897;28;20204;-72
2022/04/02 04:01:46;;;;;;;27.48;24.73;;;;;;;0.97;100.00;97484.94;2083477;28;20225;-72
2022/04/02 04:02:52;;;;;;;28.30;25.38;;;;;;;0.95;100.00;97484.41;2082199;28;20287;-72
2022/04/02 04:04:01;;;;;;;29.33;25.30;;;;;;;0.98;100.00;97480.47;2075491;28;20208;-72
2022/04/02 04:05:10;;;;;;;28.02;25.13;;;;;;;0.99;100.00;97484.66;2074080;28;20220;-72
2022/04/02 04:06:13;;;;;;;29.85;26.75;;;;;;;0.94;100.00;97485.47;2074622;28;20761;-72
2022/04/02 04:07:15;;;;;;;28.33;25.55;;;;;;;0.96;100.00;97486.00;2074002;28;20567;-72
2022/04/02 04:08:21;;;;;;;28.55;25.73;;;;;;;0.98;100.00;97491.75;2074144;28;20659;-72
2022/04/02 04:09:26;;;;;;;28.38;25.50;;;;;;;0.97;100.00;97489.41;2082294;28;20682;-72
2022/04/02 04:10:31;;;;;;;27.75;24.95;;;;;;;0.84;100.00;97499.44;2081945;28;20231;-72
2022/04/02 04:11:41;;;;;;;27.13;24.33;;;;;;;0.81;100.00;97491.31;2074254;28;20242;-72
2022/04/02 04:12:55;;;;;;;27.00;23.65;;;;;;;0.75;100.00;97490.56;2075567;28;20668;-72
2022/04/02 04:14:02;;;;;;;26.17;23.55;;;;;;;0.84;100.00;97496.03;2075876;28;20267;-72
2022/04/02 04:15:07;;;;;;;27.05;24.35;;;;;;;0.82;100.00;97501.53;2074045;28;20227;-72
2022/04/02 04:16:16;;;;;;;27.77;24.98;;;;;;;0.81;100.00;97501.81;2074412;28;20717;-72
2022/04/02 04:17:24;;;;;;;28.42;25.42;;;;;;;0.82;100.00;97506.00;2074965;28;20560;-72
2022/04/02 04:18:29;;;;;;;28.45;25.50;;;;;;;0.83;100.00;97502.34;2074930;28;20685;-72
2022/04/02 04:19:37;;;;;;;28.17;25.38;;;;;;;0.76;100.00;97496.59;2081930;28;20682;-72
2022/04/02 04:20:41;;;;;;;27.48;24.73;;;;;;;0.79;100.00;97502.09;2081977;28;20199;-72
2022/04/02 04:21:50;;;;;;;28.50;25.90;;;;;;;0.78;100.00;97500.53;2081774;28;20223;-72
2022/04/02 04:23:00;;;;;;;26.77;24.13;;;;;;;0.81;100.00;97499.19;2082161;28;20238;-72
2022/04/02 04:24:10;;;;;;;26.50;24.15;;;;;;;0.81;100.00;97507.06;2081955;28;20285;-72
2022/04/02 04:25:18;;;;;;;26.63;24.02;;;;;;;0.88;100.00;97515.44;2082194;28;20658;-72
2022/04/02 04:26:26;;;;;;;28.98;26.38;;;;;;;0.90;100.00;97509.91;2082137;28;20195;-72
2022/04/02 04:27:30;;;;;;;29.50;26.70;;;;;;;0.88;100.00;97509.41;2082767;28;20203;-72
2022/04/02 04:28:32;;;;;;;29.23;26.42;;;;;;;0.83;100.00;97511.00;2081993;28;20721;-72
2022/04/02 04:29:37;;;;;;;29.25;26.65;;;;;;;0.82;100.00;97506.00;2082304;28;20195;-72
2022/04/02 04:30:42;;;;;;;29.83;26.80;;;;;;;0.90;100.00;97508.06;2081646;28;20690;-72
2022/04/02 04:32:01;;;;;;;29.50;26.63;;;;;;;0.93;100.00;97504.13;2081905;28;20270;-72
2022/04/02 04:33:06;;;;;;;29.60;26.83;;;;;;;0.95;100.00;97505.41;2083089;28;20636;-72
2022/04/02 04:34:09;;;;;;;29.13;26.42;;;;;;;0.94;100.00;97510.94;2081599;28;20234;-72
2022/04/02 04:35:14;;;;;;;28.75;25.95;;;;;;;0.93;100.00;97515.41;2081990;28;20720;-72
2022/04/02 04:36:19;;;;;;;29.40;26.40;;;;;;;0.81;100.00;97512.31;2082081;28;20227;-72
2022/04/02 04:37:26;;;;;;;31.00;27.88;;;;;;;0.82;100.00;97514.69;2081874;28;20203;-72
2022/04/02 04:38:36;;;;;;;30.33;27.40;;;;;;;0.91;100.00;97506.22;2081874;28;20681;-72
2022/04/02 04:39:48;;;;;;;29.02;26.30;;;;;;;0.85;100.00;97519.38;2081834;28;20207;-72
2022/04/02 04:40:59;;;;;;;28.52;25.95;;;;;;;0.82;100.00;97514.69;2082059;28;20612;-72
2022/04/02 04:42:03;;;;;;;28.05;25.17;;;;;;;0.83;100.00;97515.47;2082007;28;20206;-72
2022/04/02 04:43:10;;;;;;;28.50;25.83;;;;;;;0.84;100.00;97512.56;2082477;28;20321;-72
2022/04/02 04:44:20;;;;;;;29.02;26.15;;;;;;;0.86;100.00;97517.53;2081700;28;20206;-72
2022/04/02 04:45:26;;;;;;;28.08;25.30;;;;;;;0.90;100.00;97518.56;2081785;28;20297;-72
2022/04/02 04:46:31;;;;;;;28.35;25.45;;;;;;;0.89;100.00;97514.38;2073664;28;20257;-72
2022/04/02 04:47:37;;;;;;;27.30;24.52;;;;;;;0.91;100.00;97514.88;2073379;28;20227;-72
2022/04/02 04:48:45;;;;;;;27.92;25.13;;;;;;;0.92;100.00;97511.22;2082015;28;20254;-72
2022/04/02 04:49:48;;;;;;;28.23;25.25;;;;;;;0.89;100.00;97519.63;2074147;28;20657;-72
2022/04/02 04:50:52;;;;;;;28.02;25.25;;;;;;;0.97;100.00;97521.69;2073871;28;20703;-72
2022/04/02 04:52:01;;;;;;;28.52;25.73;;;;;;;0.96;100.00;97522.75;2073800;28;20671;-72
2022/04/02 04:53:08;;;;;;;29.35;26.52;;;;;;;0.96;100.00;97520.13;2074378;28;20232;-72
2022/04/02 04:54:17;;;;;;;28.20;25.50;;;;;;;0.98;100.00;97522.47;2074659;28;20591;-71
2022/04/02 04:55:24;;;;;;;28.65;26.00;;;;;;;0.98;100.00;97518.00;2081939;28;20234;-72
2022/04/02 04:56:28;;;;;;;29.13;26.45;;;;;;;0.94;100.00;97522.22;2074431;28;20228;-72
2022/04/02 04:57:30;;;;;;;31.42;28.63;;;;;;;0.89;100.00;97519.63;2073916;28;20196;-72
2022/04/02 04:58:45;;;;;;;30.98;28.38;;;;;;;0.92;100.00;97524.34;2074597;28;20583;-72
2022/04/02 04:59:49;;;;;;;31.25;28.52;;;;;;;0.86;100.00;97525.41;2081752;28;20238;-72
2022/04/02 05:01:03;;;;;;;32.75;30.00;;;;;;;0.91;100.00;97525.38;2081787;28;20215;-72
2022/04/02 05:02:15;;;;;;;30.08;27.52;;;;;;;0.89;100.00;97521.47;2081582;28;20203;-72
2022/04/02 05:03:20;;;;;;;30.10;27.55;;;;;;;0.87;100.00;97523.56;2081651;28;20591;-72
2022/04/02 05:04:26;;;;;;;30.70;28.00;;;;;;;0.88;100.00;97531.19;2081582;28;20242;-72
2022/04/02 05:05:31;;;;;;;30.48;27.73;;;;;;;0.85;100.00;97531.72;2074054;28;20205;-72
2022/04/02 05:06:40;;;;;;;32.35;29.48;;;;;;;0.80;100.00;97532.53;2081346;28;20587;-72
2022/04/02 05:07:46;;;;;;;29.65;27.23;;;;;;;0.89;100.00;97519.63;2074526;28;20612;-72
2022/04/02 05:08:56;;;;;;;29.45;26.85;;;;;;;0.94;100.00;97526.69;2074005;28;20726;-72
2022/04/02 05:10:07;;;;;;;29.52;26.70;;;;;;;0.98;100.00;97527.72;2075048;28;20684;-72
2022/04/02 05:11:12;;;;;;;29.58;26.50;;;;;;;0.89;100.00;97532.75;2081670;28;20191;-72
2022/04/02 05:12:20;;;;;;;28.25;25.58;;;;;;;0.91;100.00;97535.13;2081826;28;20168;-72
2022/04/02 05:13:33;;;;;;;27.52;25.08;;;;;;;0.91;100.00;97529.84;2081565;28;20693;-72
2022/04/02 05:14:40;;;;;;;29.58;26.77;;;;;;;0.92;100.00;97537.47;2074759;28;20255;-72
2022/04/02 05:15:49;;;;;;;28.80;26.00;;;;;;;0.97;100.00;97532.19;2074702;28;20205;-72
2022/04/02 05:17:02;;;;;;;28.75;25.98;;;;;;;0.98;100.00;97536.38;2081614;28;20286;-72